Time;durP1;ratioP1;P1;durP2;ratioP2;P2;SDS_P1;SDS_P2;PMS_P1;PMS_P2;Temp;Humidity;BMP_temperature;BMP_pressure;BME280_temperature;BME280_humidity;BME280_pressure;Samples;Min_cycle;Max_cycle;Signal;HPM_P1;HPM_P2
2023/10/07 00:01:04;;;;;;;15.02;7.70;;;;;;;;;;2074016;28;20030;-72
2023/10/07 00:02:30;;;;;;;14.98;7.78;;;;;;;;;;2072918;28;20022;-72
2023/10/07 00:03:53;;;;;;;14.70;7.82;;;;;;;;;;2076439;28;20041;-72
2023/10/07 00:05:16;;;;;;;15.80;7.75;;;;;;;;;;2089236;28;20022;-73
2023/10/07 00:06:38;;;;;;;18.52;8.13;;;;;;;;;;2083543;28;20025;-72
2023/10/07 00:08:03;;;;;;;12.98;7.22;;;;;;;;;;2081053;28;20029;-72
2023/10/07 00:09:24;;;;;;;17.27;7.82;;;;;;;;;;2089304;28;20469;-72
2023/10/07 00:10:48;;;;;;;14.27;7.45;;;;;;;;;;2074930;28;20038;-72
2023/10/07 00:12:13;;;;;;;16.90;9.02;;;;;;;;;;2080937;28;20092;-73
2023/10/07 00:13:34;;;;;;;11.52;7.60;;;;;;;;;;2075604;28;20045;-72
2023/10/07 00:14:55;;;;;;;14.50;8.05;;;;;;;;;;2065176;28;20030;-73
2023/10/07 00:16:18;;;;;;;14.57;8.52;;;;;;;;;;2069804;28;20520;-73
2023/10/07 00:17:42;;;;;;;16.27;7.90;;;;;;;;;;2073319;28;20033;-72
2023/10/07 00:19:03;;;;;;;16.17;8.52;;;;;;;;;;2057041;28;20037;-73
2023/10/07 00:20:26;;;;;;;17.33;7.93;;;;;;;;;;2062616;28;20031;-72
2023/10/07 00:21:58;;;;;;;13.00;7.88;;;;;;;;;;2071204;28;20366;-72
2023/10/07 00:23:23;;;;;;;12.77;7.43;;;;;;;;;;2080597;28;20037;-73
2023/10/07 00:24:45;;;;;;;14.13;7.85;;;;;;;;;;2088342;28;20033;-72
2023/10/07 00:26:09;;;;;;;17.85;8.50;;;;;;;;;;2078684;28;20044;-73
2023/10/07 00:27:38;;;;;;;18.27;7.72;;;;;;;;;;2081852;28;20415;-72
2023/10/07 00:29:02;;;;;;;13.65;8.40;;;;;;;;;;2077427;28;20049;-73
2023/10/07 00:30:27;;;;;;;14.43;8.40;;;;;;;;;;2080233;28;20083;-74
2023/10/07 00:31:50;;;;;;;15.30;8.35;;;;;;;;;;2081256;28;20044;-73
2023/10/07 00:33:12;;;;;;;21.50;9.10;;;;;;;;;;2081825;28;20483;-72
2023/10/07 00:34:38;;;;;;;15.07;8.13;;;;;;;;;;2080601;28;20040;-73
2023/10/07 00:36:05;;;;;;;13.85;9.05;;;;;;;;;;2089025;28;20033;-70
2023/10/07 00:37:26;;;;;;;20.17;7.72;;;;;;;;;;2083445;28;20025;-70
2023/10/07 00:38:47;;;;;;;21.65;9.48;;;;;;;;;;2089060;28;20418;-69
2023/10/07 00:40:14;;;;;;;20.10;9.07;;;;;;;;;;2082439;28;20060;-69
2023/10/07 00:41:58;;;;;;;17.85;9.00;;;;;;;;;;2078817;28;20120;-70
2023/10/07 00:43:26;;;;;;;15.75;8.93;;;;;;;;;;2080280;28;20041;-70
2023/10/07 00:44:47;;;;;;;18.23;9.20;;;;;;;;;;2080955;28;20378;-70
2023/10/07 00:46:10;;;;;;;16.88;9.15;;;;;;;;;;2080375;28;20044;-70
2023/10/07 00:47:34;;;;;;;17.77;8.13;;;;;;;;;;2079523;28;20044;-70
2023/10/07 00:49:09;;;;;;;15.80;8.43;;;;;;;;;;2088373;28;20037;-70
2023/10/07 00:50:30;;;;;;;17.73;8.57;;;;;;;;;;2086743;28;20033;-70
2023/10/07 00:51:52;;;;;;;16.30;8.35;;;;;;;;;;2074566;28;20068;-70
2023/10/07 00:53:13;;;;;;;14.77;9.25;;;;;;;;;;2078934;28;20496;-70
2023/10/07 00:54:44;;;;;;;20.45;9.50;;;;;;;;;;2080234;28;20041;-70
2023/10/07 00:56:05;;;;;;;15.77;9.85;;;;;;;;;;2081528;28;20029;-70
2023/10/07 00:57:36;;;;;;;15.65;9.13;;;;;;;;;;2069341;28;20034;-70
2023/10/07 00:59:03;;;;;;;18.80;9.23;;;;;;;;;;2087233;28;20033;-70
2023/10/07 01:01:50;;;;;;;20.27;8.90;;;;;;;;;;2080395;28;20048;-70
2023/10/07 01:04:47;;;;;;;15.10;8.93;;;;;;;;;;2082386;28;20044;-72
2023/10/07 01:06:12;;;;;;;18.48;10.27;;;;;;;;;;2093329;28;20037;-73
2023/10/07 01:07:34;;;;;;;18.35;9.73;;;;;;;;;;2082280;28;20025;-72
2023/10/07 01:09:07;;;;;;;21.50;11.73;;;;;;;;;;2082690;28;20036;-73
2023/10/07 01:10:31;;;;;;;16.13;9.55;;;;;;;;;;2090854;28;20079;-73
2023/10/07 01:11:57;;;;;;;22.65;10.68;;;;;;;;;;2084747;28;20026;-71
2023/10/07 01:13:29;;;;;;;19.10;10.27;;;;;;;;;;2080554;28;20096;-71
2023/10/07 01:14:50;;;;;;;26.35;11.57;;;;;;;;;;2083814;28;20032;-71
2023/10/07 01:16:14;;;;;;;16.23;9.90;;;;;;;;;;2083280;28;20041;-71
2023/10/07 01:17:40;;;;;;;21.15;10.48;;;;;;;;;;2085307;28;20063;-70
2023/10/07 01:22:18;;;;;;;19.45;9.18;;;;;;;;;;2073616;28;20034;-71
2023/10/07 01:23:40;;;;;;;17.40;9.23;;;;;;;;;;2067612;28;20485;-71
2023/10/07 01:25:06;;;;;;;18.25;9.68;;;;;;;;;;2071583;28;20409;-71
2023/10/07 01:26:33;;;;;;;16.63;9.38;;;;;;;;;;2069856;28;20033;-70
2023/10/07 01:27:54;;;;;;;23.80;10.00;;;;;;;;;;2072684;28;20489;-71
2023/10/07 01:29:16;;;;;;;19.58;8.88;;;;;;;;;;2069570;28;20033;-71
2023/10/07 01:30:36;;;;;;;16.30;9.40;;;;;;;;;;2070722;28;20077;-70
2023/10/07 01:32:03;;;;;;;16.13;9.80;;;;;;;;;;2072367;28;20083;-71
2023/10/07 01:33:26;;;;;;;21.98;11.77;;;;;;;;;;2073145;28;20056;-71
2023/10/07 01:34:52;;;;;;;19.23;11.52;;;;;;;;;;2082732;28;20037;-71
2023/10/07 01:37:43;;;;;;;18.58;11.35;;;;;;;;;;2074986;28;20037;-71
2023/10/07 01:39:06;;;;;;;21.95;11.73;;;;;;;;;;2080473;28;20506;-71
2023/10/07 01:40:31;;;;;;;21.30;10.82;;;;;;;;;;2074652;28;20042;-71
2023/10/07 01:41:52;;;;;;;24.73;11.52;;;;;;;;;;2071001;28;20030;-71
2023/10/07 01:43:13;;;;;;;21.00;11.85;;;;;;;;;;2070772;28;20041;-71
2023/10/07 01:44:38;;;;;;;20.05;10.95;;;;;;;;;;2064676;28;20026;-71
2023/10/07 01:46:10;;;;;;;21.23;11.32;;;;;;;;;;2068524;28;20481;-71
2023/10/07 01:47:31;;;;;;;19.58;11.18;;;;;;;;;;2069079;28;20030;-71
2023/10/07 01:48:55;;;;;;;21.58;10.95;;;;;;;;;;2073417;28;20041;-72
2023/10/07 01:50:18;;;;;;;20.67;10.90;;;;;;;;;;2073273;28;20030;-70
2023/10/07 01:51:45;;;;;;;29.40;11.90;;;;;;;;;;2072576;28;20489;-71
2023/10/07 01:53:06;;;;;;;29.27;13.10;;;;;;;;;;2070236;28;20034;-71
2023/10/07 01:54:29;;;;;;;20.88;11.30;;;;;;;;;;2069860;28;20036;-71
2023/10/07 01:55:51;;;;;;;21.33;11.25;;;;;;;;;;2066085;28;20405;-71
2023/10/07 01:57:15;;;;;;;;;;;;;;;;;;2072595;28;20567;-71
2023/10/07 01:58:36;;;;;;;26.15;12.60;;;;;;;;;;2074440;28;20257;-71
2023/10/07 01:59:58;;;;;;;24.27;11.05;;;;;;;;;;2072788;28;20033;-71
2023/10/07 02:01:22;;;;;;;;;;;;;;;;;;2080830;28;20041;-71
2023/10/07 02:02:49;;;;;;;22.42;11.90;;;;;;;;;;2085504;28;19905;-71
2023/10/07 02:04:26;;;;;;;22.00;10.90;;;;;;;;;;2075731;28;20057;-71
2023/10/07 02:05:48;;;;;;;27.40;11.88;;;;;;;;;;2080219;28;20021;-71
2023/10/07 02:07:09;;;;;;;;;;;;;;;;;;2073262;28;20397;-71
2023/10/07 02:08:31;;;;;;;22.25;11.30;;;;;;;;;;2074216;28;19909;-71
2023/10/07 02:09:54;;;;;;;21.77;11.15;;;;;;;;;;2074121;28;20497;-71
2023/10/07 02:11:18;;;;;;;21.25;11.98;;;;;;;;;;2073492;28;20034;-71
2023/10/07 02:12:45;;;;;;;27.25;12.15;;;;;;;;;;2074165;28;20133;-71
2023/10/07 02:14:06;;;;;;;21.15;11.65;;;;;;;;;;2066812;28;20513;-71
2023/10/07 02:15:27;;;;;;;26.70;12.02;;;;;;;;;;2071428;28;20080;-70
2023/10/07 02:16:49;;;;;;;23.58;12.57;;;;;;;;;;2088815;28;20017;-71
2023/10/07 02:18:15;;;;;;;21.38;11.80;;;;;;;;;;2083494;28;20558;-72
2023/10/07 02:19:40;;;;;;;24.05;12.52;;;;;;;;;;2066331;28;20038;-71
2023/10/07 02:21:07;;;;;;;25.30;12.82;;;;;;;;;;2079789;28;20067;-71
2023/10/07 02:22:28;;;;;;;26.33;10.98;;;;;;;;;;2081895;28;20500;-71
2023/10/07 02:23:49;;;;;;;24.63;12.88;;;;;;;;;;2087995;28;20118;-70
2023/10/07 02:25:10;;;;;;;23.42;13.75;;;;;;;;;;2092795;28;20020;-71
2023/10/07 02:26:32;;;;;;;31.23;14.75;;;;;;;;;;2083456;28;20083;-71
2023/10/07 02:27:54;;;;;;;22.20;12.48;;;;;;;;;;2081441;28;20064;-70
2023/10/07 02:29:15;;;;;;;25.60;13.68;;;;;;;;;;2083527;28;20033;-71
2023/10/07 02:30:45;;;;;;;25.88;13.10;;;;;;;;;;2084508;28;20033;-71
2023/10/07 02:32:17;;;;;;;28.73;12.88;;;;;;;;;;2082121;28;20037;-71
2023/10/07 02:33:57;;;;;;;19.58;11.90;;;;;;;;;;2082078;28;20034;-71
2023/10/07 02:35:19;;;;;;;27.27;11.55;;;;;;;;;;2066023;28;20031;-71
2023/10/07 02:36:51;;;;;;;21.63;11.57;;;;;;;;;;2077309;28;20045;-71
2023/10/07 02:38:12;;;;;;;28.27;13.90;;;;;;;;;;2081978;28;20401;-71
2023/10/07 02:39:45;;;;;;;27.80;13.85;;;;;;;;;;2081104;28;20423;-71
2023/10/07 02:41:16;;;;;;;26.98;12.57;;;;;;;;;;2081370;28;20042;-71
2023/10/07 02:42:38;;;;;;;21.98;12.00;;;;;;;;;;2080872;28;20488;-71
2023/10/07 02:44:06;;;;;;;27.80;13.43;;;;;;;;;;2064992;28;20096;-71
2023/10/07 02:45:29;;;;;;;24.77;12.80;;;;;;;;;;2066384;28;20069;-71
2023/10/07 02:46:52;;;;;;;24.77;13.57;;;;;;;;;;2079492;28;20026;-71
2023/10/07 02:48:13;;;;;;;26.80;14.13;;;;;;;;;;2076446;28;20370;-71
2023/10/07 02:49:34;;;;;;;29.48;14.20;;;;;;;;;;2072537;28;20037;-71
2023/10/07 02:51:06;;;;;;;30.13;15.23;;;;;;;;;;2073653;28;20073;-71
2023/10/07 02:52:37;;;;;;;28.92;13.48;;;;;;;;;;2073285;28;20373;-71
2023/10/07 02:54:04;;;;;;;30.75;14.60;;;;;;;;;;2081031;28;20459;-71
2023/10/07 02:56:56;;;;;;;28.73;15.45;;;;;;;;;;2070653;28;20496;-71
2023/10/07 02:58:37;;;;;;;25.60;14.00;;;;;;;;;;2066663;28;20037;-71
2023/10/07 03:00:11;;;;;;;25.42;14.50;;;;;;;;;;2075215;28;20034;-71
2023/10/07 03:01:32;;;;;;;31.38;16.67;;;;;;;;;;2070102;28;20030;-71
2023/10/07 03:03:09;;;;;;;25.90;14.93;;;;;;;;;;2076259;28;20029;-71
2023/10/07 03:04:34;;;;;;;34.05;13.27;;;;;;;;;;2080449;28;20053;-71
2023/10/07 03:05:58;;;;;;;28.35;15.65;;;;;;;;;;2085129;28;20038;-71
2023/10/07 03:07:19;;;;;;;28.50;14.48;;;;;;;;;;2081719;28;20032;-71
2023/10/07 03:08:40;;;;;;;33.53;16.20;;;;;;;;;;2078042;28;20026;-71
2023/10/07 03:10:36;;;;;;;33.38;16.23;;;;;;;;;;2075616;28;20056;-71
2023/10/07 03:12:02;;;;;;;33.65;16.95;;;;;;;;;;2077203;28;20038;-71
2023/10/07 03:13:23;;;;;;;28.42;16.15;;;;;;;;;;2075839;28;20026;-71
2023/10/07 03:14:44;;;;;;;34.80;17.33;;;;;;;;;;2078391;28;20029;-71
2023/10/07 03:17:56;;;;;;;31.10;18.02;;;;;;;;;;2061376;28;20125;-70
2023/10/07 03:19:30;;;;;;;32.35;15.57;;;;;;;;;;2065685;28;20084;-71
2023/10/07 03:21:00;;;;;;;31.33;15.73;;;;;;;;;;2072474;28;20042;-71
2023/10/07 03:22:28;;;;;;;38.58;17.77;;;;;;;;;;2073853;28;20033;-71
2023/10/07 03:23:49;;;;;;;34.47;18.05;;;;;;;;;;2073544;28;20448;-71
2023/10/07 03:25:16;;;;;;;32.92;16.20;;;;;;;;;;2077066;28;20072;-71
2023/10/07 03:26:40;;;;;;;29.80;15.60;;;;;;;;;;2071084;28;20033;-71
2023/10/07 03:28:16;;;;;;;35.03;19.35;;;;;;;;;;2066595;28;20753;-71
2023/10/07 03:29:39;;;;;;;33.15;17.00;;;;;;;;;;2083251;28;20037;-71
2023/10/07 03:31:00;;;;;;;32.13;16.05;;;;;;;;;;2076013;28;20038;-71
2023/10/07 03:32:21;;;;;;;31.70;17.60;;;;;;;;;;2066781;28;20385;-71
2023/10/07 03:33:51;;;;;;;38.22;17.58;;;;;;;;;;2078340;28;20106;-71
2023/10/07 03:35:17;;;;;;;35.58;18.10;;;;;;;;;;2089096;28;20473;-71
2023/10/07 03:36:44;;;;;;;37.28;18.73;;;;;;;;;;2084789;28;20041;-72
2023/10/07 03:38:08;;;;;;;37.80;18.77;;;;;;;;;;2081719;28;20033;-72
2023/10/07 03:39:44;;;;;;;32.20;16.80;;;;;;;;;;2082444;28;20084;-73
2023/10/07 03:41:09;;;;;;;30.15;16.70;;;;;;;;;;2080622;28;20064;-72
2023/10/07 03:42:30;;;;;;;30.15;17.10;;;;;;;;;;2081269;28;20037;-72
2023/10/07 03:43:51;;;;;;;32.95;17.63;;;;;;;;;;2080364;28;20033;-72
2023/10/07 03:45:14;;;;;;;41.33;17.33;;;;;;;;;;2088371;28;20049;-72
2023/10/07 03:46:35;;;;;;;41.30;20.00;;;;;;;;;;2083284;28;20034;-72
2023/10/07 03:48:06;;;;;;;36.00;17.58;;;;;;;;;;2088567;28;20024;-72
2023/10/07 03:49:39;;;;;;;32.70;17.67;;;;;;;;;;2092765;28;20037;-72
2023/10/07 03:51:07;;;;;;;39.78;18.13;;;;;;;;;;2079262;28;20038;-71
2023/10/07 03:52:28;;;;;;;33.17;17.80;;;;;;;;;;2077688;28;20488;-72
2023/10/07 03:53:54;;;;;;;34.53;17.20;;;;;;;;;;2072922;28;20046;-72
2023/10/07 03:55:15;;;;;;;37.53;17.45;;;;;;;;;;2080085;28;20021;-72
2023/10/07 03:56:39;;;;;;;37.83;18.90;;;;;;;;;;2082139;28;20342;-72
2023/10/07 03:58:00;;;;;;;42.58;19.30;;;;;;;;;;2081031;28;20030;-72
2023/10/07 03:59:21;;;;;;;35.13;19.45;;;;;;;;;;2088664;28;20025;-72
2023/10/07 04:00:46;;;;;;;31.48;17.08;;;;;;;;;;2083291;28;20025;-71
2023/10/07 04:02:44;;;;;;;36.17;19.50;;;;;;;;;;2072522;28;20041;-72
2023/10/07 04:03:59;;;;;;;42.90;18.95;;;;;;;;;;2077906;28;20103;-72
2023/10/07 04:05:31;;;;;;;32.03;16.52;;;;;;;;;;2072608;28;20192;-72
2023/10/07 04:06:52;;;;;;;41.67;19.25;;;;;;;;;;2082539;28;20037;-72
2023/10/07 04:08:13;;;;;;;36.83;18.65;;;;;;;;;;2085888;28;20409;-72
2023/10/07 04:09:35;;;;;;;38.80;19.20;;;;;;;;;;2085277;28;20028;-72
2023/10/07 04:10:56;;;;;;;39.38;19.52;;;;;;;;;;2091561;28;20033;-72
2023/10/07 04:12:17;;;;;;;42.40;19.70;;;;;;;;;;2084093;28;20037;-72
2023/10/07 04:13:39;;;;;;;43.78;20.40;;;;;;;;;;2083891;28;20481;-72
2023/10/07 04:15:02;;;;;;;40.38;18.60;;;;;;;;;;2085962;28;20045;-72
2023/10/07 04:16:24;;;;;;;37.88;19.75;;;;;;;;;;2085906;28;20460;-72
2023/10/07 04:17:45;;;;;;;33.38;17.92;;;;;;;;;;2081307;28;20029;-73
2023/10/07 04:22:11;;;;;;;38.58;20.60;;;;;;;;;;2080929;28;20123;-72
2023/10/07 04:23:32;;;;;;;33.70;19.63;;;;;;;;;;2081088;28;20033;-72
2023/10/07 04:24:52;;;;;;;35.53;18.50;;;;;;;;;;2085389;28;20570;-73
2023/10/07 04:26:19;;;;;;;35.53;18.80;;;;;;;;;;2083248;28;20158;-73
2023/10/07 04:27:42;;;;;;;34.75;17.98;;;;;;;;;;2081842;28;20949;-73
2023/10/07 04:29:07;;;;;;;35.35;19.50;;;;;;;;;;2080436;28;20049;-74
2023/10/07 04:30:38;;;;;;;30.70;18.70;;;;;;;;;;2083424;28;20029;-74
2023/10/07 04:32:10;;;;;;;31.88;17.52;;;;;;;;;;2082116;28;20041;-74
2023/10/07 04:33:39;;;;;;;30.52;18.75;;;;;;;;;;2080657;28;20119;-74
2023/10/07 04:35:06;;;;;;;40.97;18.80;;;;;;;;;;2084009;28;20033;-73
2023/10/07 04:36:33;;;;;;;31.52;17.17;;;;;;;;;;2084657;28;20448;-74
2023/10/07 04:38:09;;;;;;;34.08;18.40;;;;;;;;;;2072515;28;20034;-73
2023/10/07 04:40:33;;;;;;;38.05;18.45;;;;;;;;;;2080649;28;20040;-74
2023/10/07 04:46:06;;;;;;;41.28;19.92;;;;;;;;;;2070915;28;20037;-74
2023/10/07 04:47:46;;;;;;;38.08;17.67;;;;;;;;;;2073764;28;20100;-74
2023/10/07 04:49:13;;;;;;;40.15;19.58;;;;;;;;;;2076075;28;20037;-74
2023/10/07 04:50:35;;;;;;;42.78;22.77;;;;;;;;;;2072153;28;20033;-73
2023/10/07 04:51:59;;;;;;;35.35;19.63;;;;;;;;;;2073424;28;20482;-74
2023/10/07 04:53:25;;;;;;;39.15;20.00;;;;;;;;;;2076583;28;20033;-74
2023/10/07 04:54:48;;;;;;;36.33;19.20;;;;;;;;;;2082169;28;20033;-74
2023/10/07 04:56:10;;;;;;;33.97;19.08;;;;;;;;;;2075954;28;20087;-74
2023/10/07 04:59:11;;;;;;;35.30;18.35;;;;;;;;;;2075867;28;20033;-74
2023/10/07 05:02:01;;;;;;;40.85;19.20;;;;;;;;;;2079047;28;20104;-74
2023/10/07 05:03:26;;;;;;;32.45;18.60;;;;;;;;;;2075922;28;20095;-73
2023/10/07 05:04:50;;;;;;;38.17;18.92;;;;;;;;;;2075853;28;20481;-74
2023/10/07 05:06:11;;;;;;;38.75;19.45;;;;;;;;;;2065249;28;20034;-74
2023/10/07 05:07:32;;;;;;;35.10;18.75;;;;;;;;;;2074279;28;20037;-74
2023/10/07 05:08:52;;;;;;;37.83;20.90;;;;;;;;;;2074898;28;20041;-74
2023/10/07 05:10:13;;;;;;;34.55;18.30;;;;;;;;;;2063506;28;20348;-74
2023/10/07 05:11:40;;;;;;;37.85;18.33;;;;;;;;;;2071443;28;20034;-73
2023/10/07 05:13:06;;;;;;;43.05;19.85;;;;;;;;;;2071460;28;20425;-74
2023/10/07 05:14:27;;;;;;;36.05;18.80;;;;;;;;;;2074838;28;20045;-73
2023/10/07 05:15:47;;;;;;;43.97;20.73;;;;;;;;;;2074148;28;20038;-73
2023/10/07 05:17:10;;;;;;;32.83;18.38;;;;;;;;;;2073142;28;20034;-73
2023/10/07 05:18:31;;;;;;;32.83;18.48;;;;;;;;;;2078720;28;20021;-73
2023/10/07 05:19:52;;;;;;;36.95;19.05;;;;;;;;;;2072463;28;20559;-74
2023/10/07 05:21:15;;;;;;;44.63;20.80;;;;;;;;;;2073346;28;20037;-73
2023/10/07 05:22:36;;;;;;;39.63;20.00;;;;;;;;;;2071588;28;20473;-74
2023/10/07 05:24:02;;;;;;;42.35;19.05;;;;;;;;;;2074542;28;20034;-72
2023/10/07 05:25:23;;;;;;;42.03;18.52;;;;;;;;;;2072503;28;20412;-72
2023/10/07 05:26:44;;;;;;;35.42;17.27;;;;;;;;;;2072668;28;20034;-72
2023/10/07 05:28:11;;;;;;;36.97;18.13;;;;;;;;;;2075035;28;20038;-72
2023/10/07 05:29:32;;;;;;;37.35;18.15;;;;;;;;;;2081801;28;20495;-72
2023/10/07 05:30:54;;;;;;;40.42;18.63;;;;;;;;;;2081785;28;20465;-72
2023/10/07 05:32:16;;;;;;;36.97;20.77;;;;;;;;;;2086958;28;20029;-72
2023/10/07 05:33:37;;;;;;;37.45;18.48;;;;;;;;;;2084119;28;20079;-72
2023/10/07 05:34:58;;;;;;;37.13;18.00;;;;;;;;;;2073613;28;20046;-70
2023/10/07 05:36:23;;;;;;;32.42;17.27;;;;;;;;;;2068601;28;20046;-69
2023/10/07 05:37:46;;;;;;;35.10;17.40;;;;;;;;;;2072022;28;20128;-69
2023/10/07 05:39:08;;;;;;;27.70;16.15;;;;;;;;;;2073626;28;20026;-69
2023/10/07 05:40:29;;;;;;;32.42;16.08;;;;;;;;;;2068453;28;20026;-70
2023/10/07 05:41:50;;;;;;;33.15;15.73;;;;;;;;;;2071505;28;20476;-71
2023/10/07 05:43:11;;;;;;;29.17;15.25;;;;;;;;;;2066664;28;20046;-72
2023/10/07 05:44:35;;;;;;;33.50;16.73;;;;;;;;;;2069935;28;20041;-71
2023/10/07 05:45:55;;;;;;;36.40;17.08;;;;;;;;;;2071800;28;20057;-70
2023/10/07 05:47:16;;;;;;;31.55;16.27;;;;;;;;;;2076506;28;20030;-71
2023/10/07 05:48:38;;;;;;;30.33;16.00;;;;;;;;;;2071282;28;20037;-71
2023/10/07 05:50:00;;;;;;;29.88;16.50;;;;;;;;;;2073556;28;20081;-70
2023/10/07 05:51:21;;;;;;;28.48;15.77;;;;;;;;;;2070019;28;20092;-71
2023/10/07 05:52:43;;;;;;;30.75;16.02;;;;;;;;;;2074979;28;20414;-70
2023/10/07 05:54:05;;;;;;;;;;;;;;;;;;2081527;28;20025;-71
2023/10/07 05:55:26;;;;;;;26.17;16.55;;;;;;;;;;2075067;28;19944;-72
2023/10/07 05:56:50;;;;;;;36.65;16.02;;;;;;;;;;2074277;28;20034;-72
2023/10/07 05:58:12;;;;;;;26.65;14.38;;;;;;;;;;2078836;28;20030;-70
2023/10/07 05:59:33;;;;;;;27.88;14.57;;;;;;;;;;2075165;28;20014;-71
2023/10/07 06:00:58;;;;;;;31.88;15.98;;;;;;;;;;2075376;28;20037;-73
2023/10/07 06:02:19;;;;;;;33.97;17.15;;;;;;;;;;2083252;28;20566;-70
2023/10/07 06:03:40;;;;;;;28.85;14.45;;;;;;;;;;2077121;28;20072;-71
2023/10/07 06:05:00;;;;;;;28.55;14.57;;;;;;;;;;2083597;28;20049;-70
2023/10/07 06:06:21;;;;;;;31.70;16.95;;;;;;;;;;2087514;28;20020;-70
2023/10/07 06:07:42;;;;;;;31.10;15.45;;;;;;;;;;2085835;28;20041;-70
2023/10/07 06:09:03;;;;;;;30.52;14.32;;;;;;;;;;2081888;28;20083;-71
2023/10/07 06:10:24;;;;;;;26.73;15.55;;;;;;;;;;2081060;28;20029;-71
2023/10/07 06:11:48;;;;;;;32.03;14.38;;;;;;;;;;2079212;28;20408;-70
2023/10/07 06:13:09;;;;;;;26.92;15.25;;;;;;;;;;2083516;28;20041;-71
2023/10/07 06:14:31;;;;;;;24.77;14.18;;;;;;;;;;2077912;28;20060;-71
2023/10/07 06:15:53;;;;;;;26.20;14.35;;;;;;;;;;2083580;28;20033;-71
2023/10/07 06:17:14;;;;;;;31.70;15.43;;;;;;;;;;2083849;28;20091;-71
2023/10/07 06:18:35;;;;;;;28.42;16.02;;;;;;;;;;2081755;28;20037;-73
2023/10/07 06:19:56;;;;;;;31.80;15.63;;;;;;;;;;2070653;28;20034;-72
2023/10/07 06:21:20;;;;;;;31.70;13.73;;;;;;;;;;2078555;28;20549;-70
2023/10/07 06:22:45;;;;;;;30.67;14.05;;;;;;;;;;2079671;28;20057;-71
2023/10/07 06:24:06;;;;;;;27.88;14.20;;;;;;;;;;2079407;28;20038;-70
2023/10/07 06:25:33;;;;;;;25.65;14.02;;;;;;;;;;2080961;28;20033;-72
2023/10/07 06:26:54;;;;;;;23.98;13.90;;;;;;;;;;2083506;28;20037;-71
2023/10/07 06:29:50;;;;;;;29.88;13.23;;;;;;;;;;2080319;28;20033;-71
2023/10/07 06:31:12;;;;;;;;;;;;;;;;;;2082620;28;20025;-72
2023/10/07 06:32:45;;;;;;;26.02;13.32;;;;;;;;;;2089795;28;20289;-71
2023/10/07 06:34:12;;;;;;;28.25;14.95;;;;;;;;;;2079413;28;20041;-71
2023/10/07 06:35:37;;;;;;;34.40;16.17;;;;;;;;;;2081861;28;20454;-72
2023/10/07 06:36:59;;;;;;;28.77;14.27;;;;;;;;;;2086647;28;20044;-71
2023/10/07 06:38:21;;;;;;;31.38;12.30;;;;;;;;;;2092117;28;20342;-74
2023/10/07 06:39:43;;;;;;;24.27;14.15;;;;;;;;;;2084646;28;20033;-71
2023/10/07 06:41:09;;;;;;;37.90;14.00;;;;;;;;;;2081127;28;20029;-71
2023/10/07 06:42:30;;;;;;;28.40;12.43;;;;;;;;;;2083263;28;20046;-73
2023/10/07 06:43:51;;;;;;;28.05;13.82;;;;;;;;;;2084875;28;20041;-72
2023/10/07 06:45:15;;;;;;;23.20;12.93;;;;;;;;;;2082734;28;20095;-72
2023/10/07 06:46:44;;;;;;;23.90;12.73;;;;;;;;;;2088489;28;20029;-73
2023/10/07 06:48:09;;;;;;;25.23;12.95;;;;;;;;;;2085140;28;20029;-73
2023/10/07 06:49:39;;;;;;;25.33;14.30;;;;;;;;;;2086481;28;20090;-72
2023/10/07 06:50:59;;;;;;;27.50;13.15;;;;;;;;;;2080738;28;20049;-72
2023/10/07 06:52:22;;;;;;;25.70;12.18;;;;;;;;;;2077337;28;20451;-73
2023/10/07 06:53:43;;;;;;;22.20;11.98;;;;;;;;;;2090175;28;20028;-72
2023/10/07 06:55:06;;;;;;;23.13;12.07;;;;;;;;;;2073979;28;20509;-72
2023/10/07 06:56:27;;;;;;;25.42;11.20;;;;;;;;;;2079199;28;20033;-71
2023/10/07 06:57:48;;;;;;;38.05;13.30;;;;;;;;;;2075839;28;20402;-72
2023/10/07 06:59:10;;;;;;;24.38;13.20;;;;;;;;;;2079658;28;20049;-72
2023/10/07 07:00:47;;;;;;;28.42;13.32;;;;;;;;;;2089696;28;20091;-72
2023/10/07 07:02:11;;;;;;;24.15;12.40;;;;;;;;;;2086403;28;20041;-71
2023/10/07 07:03:32;;;;;;;31.73;14.45;;;;;;;;;;2083111;28;20033;-72
2023/10/07 07:04:52;;;;;;;26.10;12.35;;;;;;;;;;2088153;28;20040;-72
2023/10/07 07:06:17;;;;;;;26.55;12.18;;;;;;;;;;2084339;28;20060;-72
2023/10/07 07:07:38;;;;;;;24.15;11.75;;;;;;;;;;2084829;28;20431;-71
2023/10/07 07:08:59;;;;;;;23.00;13.20;;;;;;;;;;2088094;28;20095;-72
2023/10/07 07:10:27;;;;;;;29.52;11.88;;;;;;;;;;2088800;28;20122;-72
2023/10/07 07:11:49;;;;;;;24.00;12.25;;;;;;;;;;2083994;28;20034;-72
2023/10/07 07:13:18;;;;;;;;;;;;;;;;;;2092338;28;20025;-72
2023/10/07 07:14:46;;;;;;;25.40;11.35;;;;;;;;;;2082115;28;19913;-72
2023/10/07 07:16:07;;;;;;;23.13;11.13;;;;;;;;;;2082280;28;20030;-72
2023/10/07 07:18:59;;;;;;;21.30;11.18;;;;;;;;;;2085960;28;20029;-72
2023/10/07 07:20:29;;;;;;;30.08;11.63;;;;;;;;;;2083107;28;20120;-72
2023/10/07 07:21:51;;;;;;;18.77;11.52;;;;;;;;;;2079865;28;20029;-71
2023/10/07 07:23:15;;;;;;;27.00;11.65;;;;;;;;;;2086883;28;20029;-72
2023/10/07 07:24:36;;;;;;;24.75;11.25;;;;;;;;;;2080434;28;20048;-71
2023/10/07 07:26:09;;;;;;;21.13;10.57;;;;;;;;;;2087500;28;20091;-71
2023/10/07 07:27:34;;;;;;;22.85;11.32;;;;;;;;;;2085148;28;20056;-72
2023/10/07 07:28:56;;;;;;;20.23;10.50;;;;;;;;;;2082376;28;20040;-71
2023/10/07 07:30:20;;;;;;;21.77;11.65;;;;;;;;;;2082847;28;20033;-72
2023/10/07 07:31:41;;;;;;;18.75;10.40;;;;;;;;;;2077949;28;20063;-72
2023/10/07 07:33:11;;;;;;;21.30;11.52;;;;;;;;;;2089367;28;20456;-72
2023/10/07 07:34:36;;;;;;;19.85;11.05;;;;;;;;;;2082670;28;20041;-72
2023/10/07 07:35:57;;;;;;;23.80;10.48;;;;;;;;;;2076435;28;20041;-72
2023/10/07 07:37:18;;;;;;;20.55;10.57;;;;;;;;;;2081191;28;20397;-72
2023/10/07 07:38:45;;;;;;;20.38;10.13;;;;;;;;;;2082603;28;20034;-72
2023/10/07 07:40:35;;;;;;;21.42;11.48;;;;;;;;;;2079901;28;20408;-72
2023/10/07 07:41:56;;;;;;;17.55;10.07;;;;;;;;;;2083118;28;20123;-72
2023/10/07 07:43:19;;;;;;;23.17;11.70;;;;;;;;;;2085563;28;20041;-72
2023/10/07 07:44:55;;;;;;;23.55;11.60;;;;;;;;;;2082251;28;20040;-72
2023/10/07 07:46:26;;;;;;;22.52;10.90;;;;;;;;;;2083167;28;20049;-72
2023/10/07 07:47:47;;;;;;;22.13;11.10;;;;;;;;;;2072804;28;20034;-73
2023/10/07 07:49:08;;;;;;;17.25;9.52;;;;;;;;;;2086630;28;20028;-72
2023/10/07 07:50:30;;;;;;;19.63;9.00;;;;;;;;;;2084345;28;20033;-72
2023/10/07 07:51:53;;;;;;;18.08;10.05;;;;;;;;;;2083185;28;20945;-72
2023/10/07 07:53:14;;;;;;;19.60;10.43;;;;;;;;;;2086197;28;20037;-72
2023/10/07 07:54:35;;;;;;;25.27;10.90;;;;;;;;;;2081015;28;20091;-71
2023/10/07 07:55:58;;;;;;;19.33;9.73;;;;;;;;;;2082357;28;20396;-76
2023/10/07 07:57:22;;;;;;;22.17;10.07;;;;;;;;;;2096078;28;20043;-77
2023/10/07 07:58:49;;;;;;;19.67;9.98;;;;;;;;;;2082297;28;20029;-76
2023/10/07 08:00:12;;;;;;;19.65;8.57;;;;;;;;;;2083287;28;20029;-77
2023/10/07 08:01:33;;;;;;;20.85;9.93;;;;;;;;;;2082069;28;20421;-76
2023/10/07 08:02:55;;;;;;;24.45;11.18;;;;;;;;;;2083077;28;20177;-75
2023/10/07 08:04:17;;;;;;;17.80;9.73;;;;;;;;;;2068755;28;20032;-76
2023/10/07 08:05:42;;;;;;;20.17;9.80;;;;;;;;;;2079213;28;20025;-75
2023/10/07 08:07:10;;;;;;;20.02;9.52;;;;;;;;;;2084415;28;20071;-76
2023/10/07 08:08:36;;;;;;;15.73;9.02;;;;;;;;;;2087878;28;20041;-77
2023/10/07 08:10:03;;;;;;;18.30;8.95;;;;;;;;;;2084518;28;20594;-75
2023/10/07 08:11:24;;;;;;;18.65;9.27;;;;;;;;;;2087846;28;20048;-75
2023/10/07 08:12:47;;;;;;;20.70;8.27;;;;;;;;;;2085644;28;20034;-73
2023/10/07 08:14:10;;;;;;;21.83;9.85;;;;;;;;;;2073615;28;20030;-76
2023/10/07 08:15:40;;;;;;;19.00;8.35;;;;;;;;;;2071603;28;20096;-75
2023/10/07 08:17:01;;;;;;;16.63;9.55;;;;;;;;;;2062875;28;20026;-75
2023/10/07 08:18:30;;;;;;;19.88;8.60;;;;;;;;;;2070671;28;20033;-75
2023/10/07 08:19:52;;;;;;;18.40;9.32;;;;;;;;;;2065451;28;20037;-74
2023/10/07 08:21:16;;;;;;;20.45;9.55;;;;;;;;;;2070223;28;20026;-74
2023/10/07 08:22:46;;;;;;;17.95;8.80;;;;;;;;;;2071244;28;20034;-76
2023/10/07 08:24:07;;;;;;;20.13;9.75;;;;;;;;;;2081013;28;20037;-74
2023/10/07 08:25:45;;;;;;;22.65;9.43;;;;;;;;;;2074312;28;20058;-75
2023/10/07 08:27:43;;;;;;;18.42;9.43;;;;;;;;;;2072250;28;20558;-79
2023/10/07 08:28:59;;;;;;;22.15;9.65;;;;;;;;;;2072254;28;20038;-76
2023/10/07 08:30:37;;;;;;;24.02;9.45;;;;;;;;;;2071488;28;20493;-77
2023/10/07 08:31:58;;;;;;;19.52;8.68;;;;;;;;;;2074776;28;20096;-77
2023/10/07 08:33:23;;;;;;;17.95;8.68;;;;;;;;;;2080796;28;20060;-76
2023/10/07 08:34:47;;;;;;;20.40;9.55;;;;;;;;;;2065022;28;20026;-75
2023/10/07 08:36:08;;;;;;;18.60;7.47;;;;;;;;;;2067211;28;20050;-76
2023/10/07 08:37:32;;;;;;;17.45;8.35;;;;;;;;;;2063407;28;20026;-77
2023/10/07 08:38:56;;;;;;;18.20;8.70;;;;;;;;;;2070844;28;20079;-76
2023/10/07 08:40:28;;;;;;;15.68;8.48;;;;;;;;;;2071658;28;20060;-78
2023/10/07 08:41:52;;;;;;;19.38;9.55;;;;;;;;;;2067867;28;20038;-75